Airfield :
LOGIN :

Register | Disclaimer

   EN    FR    IT 

 










Legend :    VFR   Marginal VFR   IFR   Intensive IFR   Very Intensive IFR
Visi :
Ceiling :
>= 8 km
>= 3000ft
5 to 8 km
1000 to 3000 ft
1500m to 5 km
500 to 1000 ft
800 to 1500m
200 to 500 ft
< 800m
< 200 ft
Symbols :   Thunderstorms  Fog  Heavy snow  Heavy precipitations  Wind > 20 kt
SIGMETs :     Misc.  Thunderstorms  Icing  Turbulence  Mountain Waves  Volcanic Ashes






- Airport Elevation : 267 ft


EGDR - Culdrose Navy

CURRENT METAR :
  • 231850Z 22003KT 9999 FEW020 08/07 Q1008 NOSIG RMK BLU BLU

EXPIRED METARs :
  • 231815Z 23003KT 9999 FEW020 SCT200 09/07 Q1008 NOSIG RMK BLU BLU
  • 231750Z 23003KT 9999 FEW020 SCT200 10/07 Q1008 NOSIG RMK BLU BLU
  • 231721Z 25003KT 9999 FEW018 SCT250 11/08 Q1008 TEMPO SCT020 RMK BLU TEMPO WHT
  • 231650Z 25003KT 9999 FEW018 SCT250 11/08 Q1008 TEMPO SCT020 RMK BLU TEMPO WHT
  • 231616Z 27004KT 9999 FEW018 SCT250 12/08 Q1008 TEMPO SCT020 RMK BLU TEMPO WHT

TAF TAF EGDR
Valid from the 23 at 15:00 until the 24 at 00:00 UTC


231333Z 2315/2324 27005KT 9999 FEW018
TEMPO 2315/2324 SCT018
BECMG 2323/2324 21010KT
PROB30
TEMPO 2323/2324 8000 -RA SCT014



MET'MAP, your aeronautical weather chart ! - Copyright ORBIFLY December 2007 - Disclaimer

ORBIFLY MET'MAP TEAM :

Programming & Development : Alexandra Zaïnal
Concept & Development : Baudouin d'Aumeries
Co-Development & Prog : Marc-Olivier Méhu
Technical & hardware support : Manuel Goepfert

Contact : metmap@orbifly.com




SOURCES & CREDITS :

   NOAA